Time;durP1;ratioP1;P1;durP2;ratioP2;P2;SDS_P1;SDS_P2;PMS_P1;PMS_P2;Temp;Humidity;BMP_temperature;BMP_pressure;BME280_temperature;BME280_humidity;BME280_pressure;Samples;Min_cycle;Max_cycle;Signal;HPM_P1;HPM_P2
2022/09/01 04:19:50;;;;;;;6.25;4.75;;;;;;;14.23;100.00;100377.31;5543736;32;33124;-87
2022/09/01 04:22:54;;;;;;;5.22;4.30;;;;;;;13.76;100.00;100376.75;5551744;32;33951;-87
2022/09/01 04:26:07;;;;;;;5.72;4.10;;;;;;;13.75;100.00;100383.88;5559259;32;35230;-87
2022/09/01 04:29:11;;;;;;;7.40;4.20;;;;;;;13.74;100.00;100376.00;5558414;32;35103;-87
2022/09/01 04:32:15;;;;;;;5.37;3.90;;;;;;;13.75;100.00;100373.22;5558091;32;34009;-87
2022/09/01 04:35:19;;;;;;;5.70;3.90;;;;;;;13.79;100.00;100381.91;5558082;32;34887;-87
2022/09/01 04:38:23;;;;;;;4.47;4.00;;;;;;;13.80;100.00;100377.41;5558343;32;33752;-86
2022/09/01 04:41:30;;;;;;;4.72;3.50;;;;;;;13.76;100.00;100371.44;5555905;32;32632;-87
2022/09/01 04:44:34;;;;;;;5.78;3.92;;;;;;;13.68;100.00;100371.91;5548460;32;33848;-87
2022/09/01 04:47:40;;;;;;;4.90;3.35;;;;;;;13.65;100.00;100368.59;5543888;32;33579;-92
2022/09/01 04:50:44;;;;;;;7.90;3.30;;;;;;;13.80;100.00;100377.41;5544150;32;33570;-91
2022/09/01 04:53:50;;;;;;;5.60;3.30;;;;;;;13.72;100.00;100384.09;5544853;32;33948;-89
2022/09/01 04:56:53;;;;;;;3.97;3.10;;;;;;;13.66;100.00;100370.28;5541930;32;33695;-87
2022/09/01 04:59:57;;;;;;;4.15;3.67;;;;;;;13.67;100.00;100375.53;5538653;32;34489;-88
2022/09/01 05:03:03;;;;;;;3.58;3.15;;;;;;;15.79;100.00;100366.81;5524571;32;33423;-87
2022/09/01 05:06:13;;;;;;;8.02;2.90;;;;;;;17.24;100.00;100374.94;5543778;32;34225;-88
2022/09/01 05:09:18;;;;;;;5.35;3.17;;;;;;;18.22;100.00;100371.72;5531183;32;34329;-87
2022/09/01 05:12:21;;;;;;;3.62;2.80;;;;;;;17.02;100.00;100381.06;5526847;32;33863;-87
2022/09/01 05:15:24;;;;;;;4.00;3.00;;;;;;;16.01;100.00;100378.69;5538243;32;33764;-88
2022/09/01 05:18:27;;;;;;;4.53;3.35;;;;;;;15.20;100.00;100370.97;5543387;32;35295;-87
2022/09/01 05:21:30;;;;;;;4.68;3.03;;;;;;;14.94;100.00;100369.13;5531118;32;34544;-88
2022/09/01 05:24:34;;;;;;;4.43;3.15;;;;;;;14.75;100.00;100374.00;5531050;32;33616;-88
2022/09/01 05:27:51;;;;;;;4.30;3.50;;;;;;;14.60;100.00;100373.19;5528126;32;33889;-88
2022/09/01 05:30:54;;;;;;;6.93;3.87;;;;;;;14.51;100.00;100382.66;5515612;32;32762;-88
2022/09/01 05:33:57;;;;;;;6.00;3.10;;;;;;;14.41;100.00;100380.63;5519677;32;35482;-88
2022/09/01 05:37:00;;;;;;;4.85;3.15;;;;;;;14.33;100.00;100384.75;5514967;32;33802;-88
2022/09/01 05:40:08;;;;;;;3.80;3.20;;;;;;;14.26;100.00;100382.47;5514573;32;33747;-87
2022/09/01 05:43:13;;;;;;;8.47;3.13;;;;;;;14.19;100.00;100386.50;5521419;32;33805;-87
2022/09/01 05:46:22;;;;;;;3.80;3.40;;;;;;;13.98;100.00;100384.25;5518408;32;34497;-87
2022/09/01 05:49:27;;;;;;;5.05;3.33;;;;;;;13.99;100.00;100377.13;5516031;32;34392;-87
2022/09/01 05:52:37;;;;;;;5.03;2.87;;;;;;;13.86;100.00;100385.03;5515838;32;32788;-87
2022/09/01 05:55:39;;;;;;;5.25;3.10;;;;;;;13.83;100.00;100388.75;5521976;32;33926;-87
2022/09/01 05:58:45;;;;;;;6.47;3.33;;;;;;;13.94;100.00;100395.22;5527074;32;33749;-89
2022/09/01 06:02:08;;;;;;;5.20;2.80;;;;;;;14.04;100.00;100388.34;5522356;32;34594;-89
2022/09/01 06:05:14;;;;;;;4.35;3.60;;;;;;;14.12;100.00;100387.84;5511975;32;33812;-87
2022/09/01 06:08:19;;;;;;;6.35;3.35;;;;;;;13.91;100.00;100390.94;5511297;32;34814;-87
2022/09/01 06:11:24;;;;;;;6.07;3.12;;;;;;;13.83;100.00;100391.41;5521551;32;33340;-91
2022/09/01 06:14:27;;;;;;;6.05;3.45;;;;;;;13.90;100.00;100393.69;5518279;32;33690;-91
2022/09/01 06:17:30;;;;;;;5.40;3.50;;;;;;;13.92;100.00;100402.47;5515223;32;33536;-88
2022/09/01 06:20:43;;;;;;;4.95;3.45;;;;;;;13.82;100.00;100402.16;5514501;32;34511;-88
2022/09/01 06:23:49;;;;;;;6.03;3.58;;;;;;;13.80;100.00;100398.75;5514418;32;34182;-88
2022/09/01 06:26:53;;;;;;;3.75;2.97;;;;;;;13.85;100.00;100394.00;5517657;32;34330;-87
2022/09/01 06:29:58;;;;;;;6.78;3.30;;;;;;;13.90;100.00;100383.88;5517781;32;33774;-88
2022/09/01 06:33:06;;;;;;;5.93;3.15;;;;;;;14.04;100.00;100384.81;5512460;32;35205;-87
2022/09/01 06:36:09;;;;;;;3.30;3.00;;;;;;;14.09;100.00;100393.37;5512592;32;34797;-87
2022/09/01 06:39:18;;;;;;;6.95;3.20;;;;;;;14.05;100.00;100399.84;5528653;32;32941;-87
2022/09/01 06:42:22;;;;;;;3.87;3.40;;;;;;;14.01;100.00;100408.06;5520198;32;33887;-85
2022/09/01 06:45:25;;;;;;;4.05;3.37;;;;;;;14.20;100.00;100398.88;5512727;32;33846;-86
2022/09/01 06:48:30;;;;;;;4.60;3.12;;;;;;;14.23;100.00;100398.66;5532128;32;33962;-86
2022/09/01 06:51:32;;;;;;;3.92;3.25;;;;;;;14.20;100.00;100408.69;5526301;32;33779;-85
2022/09/01 06:54:38;;;;;;;3.30;3.00;;;;;;;14.22;100.00;100409.44;5513674;32;33996;-86
2022/09/01 06:57:53;;;;;;;3.85;3.30;;;;;;;14.24;100.00;100415.53;5511111;32;32561;-87
2022/09/01 07:01:19;;;;;;;3.67;3.10;;;;;;;14.28;100.00;100411.69;5514338;32;34271;-87
2022/09/01 07:04:22;;;;;;;3.95;3.20;;;;;;;14.47;100.00;100405.16;5509557;32;32821;-86
2022/09/01 07:07:32;;;;;;;3.53;3.20;;;;;;;14.63;100.00;100411.22;5508638;32;33525;-87
2022/09/01 07:10:58;;;;;;;3.50;3.07;;;;;;;14.72;100.00;100415.09;5519598;32;34334;-87
2022/09/01 07:14:21;;;;;;;5.50;3.45;;;;;;;14.71;100.00;100418.72;5519997;32;33404;-87
2022/09/01 07:17:25;;;;;;;4.85;2.85;;;;;;;14.84;100.00;100431.28;5508484;32;34083;-87
2022/09/01 07:20:28;;;;;;;4.22;3.08;;;;;;;14.79;100.00;100435.09;5515932;32;34956;-87
2022/09/01 07:23:31;;;;;;;2.97;2.70;;;;;;;14.73;100.00;100431.97;5509289;32;33820;-87
2022/09/01 07:26:52;;;;;;;3.47;2.97;;;;;;;15.02;100.00;100434.50;5508369;32;34571;-87
2022/09/01 07:29:56;;;;;;;5.18;2.90;;;;;;;14.83;100.00;100427.75;5511230;32;34004;-87
2022/09/01 07:32:59;;;;;;;4.22;3.15;;;;;;;14.75;100.00;100432.75;5509321;32;33955;-87
2022/09/01 07:36:22;;;;;;;3.25;2.80;;;;;;;14.93;100.00;100427.97;5510617;32;34296;-87
2022/09/01 07:39:30;;;;;;;2.30;2.15;;;;;;;15.18;100.00;100432.53;5508521;32;32589;-88
2022/09/01 07:42:56;;;;;;;3.95;2.60;;;;;;;15.27;100.00;100431.03;5516326;32;33999;-87
2022/09/01 07:46:24;;;;;;;4.47;2.70;;;;;;;15.26;100.00;100436.47;5516546;32;33514;-89
2022/09/01 07:49:43;;;;;;;2.95;2.58;;;;;;;15.13;100.00;100437.31;5513909;32;34441;-87
2022/09/01 07:53:07;;;;;;;4.32;2.53;;;;;;;15.25;100.00;100434.78;5520023;32;34213;-88
2022/09/01 07:56:11;;;;;;;5.07;2.70;;;;;;;15.19;100.00;100433.37;5521714;32;33607;-87
2022/09/01 07:59:14;;;;;;;8.00;3.10;;;;;;;15.39;100.00;100442.69;5525290;32;34515;-89
2022/09/01 08:02:21;;;;;;;5.00;2.45;;;;;;;15.60;100.00;100445.69;5518354;32;33730;-88
2022/09/01 08:05:25;;;;;;;3.50;2.60;;;;;;;16.17;100.00;100440.84;5512702;32;34040;-88
2022/09/01 08:08:28;;;;;;;2.78;2.30;;;;;;;16.27;100.00;100446.38;5515676;32;34528;-87
2022/09/01 08:11:33;;;;;;;5.95;2.60;;;;;;;16.55;100.00;100440.81;5527047;32;34930;-87
2022/09/01 08:17:32;;;;;;;4.07;2.53;;;;;;;16.57;100.00;100436.19;5540092;32;193585;-87
2022/09/01 08:20:53;;;;;;;3.62;2.40;;;;;;;16.64;100.00;100428.56;5538111;32;32221;-87
2022/09/01 08:23:56;;;;;;;2.42;2.22;;;;;;;16.73;100.00;100435.91;5533015;32;33618;-85
2022/09/01 08:26:59;;;;;;;2.92;2.12;;;;;;;16.67;100.00;100431.88;5525666;32;34182;-84
2022/09/01 08:30:05;;;;;;;3.75;2.50;;;;;;;16.78;100.00;100436.41;5525525;32;34731;-86
2022/09/01 08:33:12;;;;;;;5.32;2.22;;;;;;;16.95;100.00;100437.81;5527281;32;32888;-86
2022/09/01 08:36:17;;;;;;;2.42;2.20;;;;;;;16.77;100.00;100439.19;5533059;32;32506;-84
2022/09/01 08:39:26;;;;;;;4.05;2.37;;;;;;;16.62;100.00;100444.75;5546889;32;34083;-83
2022/09/01 08:43:00;;;;;;;3.58;2.40;;;;;;;16.87;100.00;100444.72;5544520;32;33775;-83
2022/09/01 08:46:21;;;;;;;5.87;2.35;;;;;;;16.81;100.00;100443.38;5547700;32;33984;-84
2022/09/01 08:49:25;;;;;;;4.80;2.42;;;;;;;16.85;99.46;100447.53;5542971;32;34282;-84
2022/09/01 08:52:40;;;;;;;4.62;2.25;;;;;;;16.93;93.56;100447.81;5529143;32;33798;-84
2022/09/01 08:55:48;;;;;;;4.50;2.50;;;;;;;17.09;96.02;100450.19;5528690;32;34798;-89
2022/09/01 08:58:52;;;;;;;4.90;2.50;;;;;;;17.05;99.02;100448.72;5540246;32;33641;-89
2022/09/01 09:02:16;;;;;;;4.03;2.28;;;;;;;17.04;96.89;100447.00;5536986;32;32951;-85
2022/09/01 09:05:31;;;;;;;5.07;2.70;;;;;;;17.24;96.12;100440.13;5544343;32;34229;-85
2022/09/01 09:08:56;;;;;;;5.32;2.42;;;;;;;16.95;100.00;100445.00;5550481;32;34268;-86
2022/09/01 09:12:21;;;;;;;4.15;2.20;;;;;;;17.17;96.25;100438.91;5542361;32;32827;-86
2022/09/01 09:15:43;;;;;;;8.05;3.00;;;;;;;17.41;93.21;100434.44;5532428;32;34433;-87
2022/09/01 09:18:53;;;;;;;4.12;2.35;;;;;;;17.75;91.47;100437.16;5530141;32;33841;-86
2022/09/01 09:21:59;;;;;;;3.53;2.40;;;;;;;17.85;94.40;100442.62;5531975;32;34009;-86
2022/09/01 09:25:08;;;;;;;5.60;2.70;;;;;;;17.70;95.63;100439.34;5522435;32;33497;-87
2022/09/01 09:28:11;;;;;;;5.57;2.50;;;;;;;17.59;97.68;100434.81;5524492;32;33983;-86
2022/09/01 09:31:24;;;;;;;5.50;2.35;;;;;;;17.94;95.20;100436.53;5527696;32;33776;-87
2022/09/01 09:34:34;;;;;;;5.97;2.95;;;;;;;17.92;89.27;100431.28;5519516;32;33704;-88
2022/09/01 09:37:37;;;;;;;5.25;2.85;;;;;;;17.89;95.39;100427.97;5524111;32;34978;-91
2022/09/01 09:40:57;;;;;;;3.90;2.62;;;;;;;18.46;90.05;100430.63;5524507;32;35229;-91
2022/09/01 09:44:31;;;;;;;8.00;2.97;;;;;;;18.34;85.41;100423.56;5512936;32;34586;-86
2022/09/01 09:47:56;;;;;;;7.75;2.58;;;;;;;18.50;87.05;100420.47;5515599;32;33846;-86
2022/09/01 09:51:16;;;;;;;2.22;2.03;;;;;;;18.64;81.74;100422.00;5525879;32;34023;-86
2022/09/01 09:54:25;;;;;;;3.28;2.28;;;;;;;18.68;78.40;100420.78;5513779;32;33943;-86
2022/09/01 09:57:29;;;;;;;4.87;2.00;;;;;;;18.61;79.57;100416.91;5510156;32;32565;-86
2022/09/01 10:00:33;;;;;;;3.67;2.20;;;;;;;19.03;75.63;100410.75;5521238;32;35136;-87
2022/09/01 10:03:42;;;;;;;3.65;1.90;;;;;;;19.36;74.69;100404.28;5528122;32;33593;-86
2022/09/01 10:06:44;;;;;;;4.25;2.15;;;;;;;19.52;73.77;100406.50;5533682;32;33593;-89
2022/09/01 10:09:49;;;;;;;4.53;1.90;;;;;;;19.51;71.42;100401.28;5529305;32;34981;-87
2022/09/01 10:12:53;;;;;;;3.10;2.00;;;;;;;19.78;74.42;100405.19;5530115;32;33878;-87
2022/09/01 10:16:00;;;;;;;3.80;2.50;;;;;;;19.77;76.37;100404.34;5531927;32;34313;-88
2022/09/01 10:19:10;;;;;;;5.30;2.67;;;;;;;19.99;70.54;100410.53;5531295;32;33677;-87
2022/09/01 10:22:14;;;;;;;2.97;2.70;;;;;;;19.91;69.76;100413.03;5528382;32;32649;-90
2022/09/01 10:43:52;;;;;;;4.37;2.05;;;;;;;22.60;57.39;100393.37;5491025;32;31488;-88
2022/09/01 10:46:58;;;;;;;1.65;1.35;;;;;;;24.01;51.85;100381.69;5506488;32;33971;-88
2022/09/01 10:50:27;;;;;;;3.00;1.70;;;;;;;25.02;45.08;100387.97;5487957;32;32460;-87
2022/09/01 10:53:37;;;;;;;3.15;1.60;;;;;;;27.14;38.95;100390.97;5498867;32;34548;-87
2022/09/01 10:56:49;;;;;;;3.08;1.33;;;;;;;26.32;41.83;100400.63;5493409;32;32393;-89
2022/09/01 10:59:56;;;;;;;3.05;1.37;;;;;;;24.78;41.89;100386.06;5488599;32;33457;-88
2022/09/01 11:03:12;;;;;;;2.28;1.30;;;;;;;23.76;43.44;100389.72;5526378;26;33742;-88
2022/09/01 11:06:41;;;;;;;7.72;1.52;;;;;;;23.75;44.74;100386.19;5547465;32;33278;-89
2022/09/01 11:13:57;;;;;;;2.83;1.30;;;;;;;23.29;45.42;100383.72;5216197;30;20440;-88
2022/09/01 11:17:11;;;;;;;;;;;;;;;23.34;46.31;100383.28;5548098;32;33996;-88
2022/09/01 11:20:27;;;;;;;1.30;1.20;;;;;;;23.96;42.84;100376.78;5546738;32;34871;-88
2022/09/01 11:23:30;;;;;;;4.07;1.27;;;;;;;24.92;40.79;100381.88;5550738;32;34080;-87
2022/09/01 11:26:33;;;;;;;3.00;1.20;;;;;;;23.98;43.18;100380.16;5552640;32;33873;-87
2022/09/01 11:29:51;;;;;;;2.12;1.23;;;;;;;24.21;43.95;100372.31;5551715;32;32147;-89
2022/09/01 11:33:16;;;;;;;2.28;1.30;;;;;;;23.80;41.11;100372.16;5544982;32;33189;-87
2022/09/01 11:36:34;;;;;;;1.70;1.40;;;;;;;23.67;41.48;100375.31;5529141;32;33257;-88
2022/09/01 11:39:47;;;;;;;3.15;1.33;;;;;;;23.33;43.83;100368.06;5547406;32;32437;-88
2022/09/01 11:42:52;;;;;;;2.72;1.27;;;;;;;23.04;43.38;100370.03;5539685;32;34834;-87
2022/09/01 11:49:51;;;;;;;2.75;1.23;;;;;;;23.86;42.71;100362.50;5524877;32;20204;-87
2022/09/01 11:53:04;;;;;;;1.10;1.00;;;;;;;23.66;41.15;100360.09;5528514;32;34283;-88
2022/09/01 11:56:23;;;;;;;1.25;1.15;;;;;;;23.58;41.13;100362.75;5524706;32;32459;-88
2022/09/01 11:59:34;;;;;;;3.83;1.52;;;;;;;23.49;41.77;100370.00;5530534;32;34568;-88
2022/09/01 12:02:48;;;;;;;1.67;1.20;;;;;;;23.44;39.19;100359.66;5512165;32;33536;-88
2022/09/01 12:06:01;;;;;;;1.58;1.20;;;;;;;23.57;40.56;100358.38;5522628;32;33689;-88
2022/09/01 12:09:04;;;;;;;1.52;1.20;;;;;;;23.86;39.99;100349.84;5518810;32;33158;-88
2022/09/01 12:12:25;;;;;;;1.73;1.23;;;;;;;24.07;39.48;100346.72;5528531;32;34555;-88
2022/09/01 12:15:29;;;;;;;2.90;1.10;;;;;;;24.33;39.18;100344.88;5525691;32;33623;-87
2022/09/01 12:18:38;;;;;;;5.82;1.55;;;;;;;24.79;38.55;100347.06;5524930;32;34515;-86
2022/09/01 12:21:42;;;;;;;2.10;1.05;;;;;;;24.89;38.49;100345.06;5541914;32;32141;-89
2022/09/01 12:24:48;;;;;;;2.80;1.25;;;;;;;24.28;37.36;100337.25;5524471;32;33848;-89
2022/09/01 12:27:51;;;;;;;1.37;1.15;;;;;;;24.34;40.36;100339.28;5517007;32;32573;-89
2022/09/01 12:31:18;;;;;;;3.75;1.23;;;;;;;24.07;38.34;100345.84;5526744;32;33988;-89
2022/09/01 12:34:36;;;;;;;1.27;1.10;;;;;;;24.40;37.83;100345.91;5528071;32;33448;-89
2022/09/01 12:37:39;;;;;;;1.20;1.10;;;;;;;23.85;39.42;100344.56;5528179;32;34355;-89
2022/09/01 12:40:42;;;;;;;1.58;1.40;;;;;;;24.09;39.35;100346.56;5528060;32;32668;-89
2022/09/01 12:43:45;;;;;;;2.42;1.12;;;;;;;24.08;38.18;100342.13;5527198;32;32931;-87
2022/09/01 12:47:12;;;;;;;1.25;1.10;;;;;;;24.17;37.78;100342.97;5563213;26;34087;-90
2022/09/01 12:54:03;;;;;;;3.03;1.40;;;;;;;24.60;39.00;100337.44;5198862;30;20157;-87
2022/09/01 12:57:11;;;;;;;5.70;1.45;;;;;;;24.02;37.18;100340.03;5529606;32;35123;-89
2022/09/01 13:00:24;;;;;;;2.45;1.30;;;;;;;24.13;36.78;100338.94;5521345;32;33370;-88
2022/09/01 13:11:01;;;;;;;3.35;2.08;;;;;;;24.15;36.89;100326.91;844443;29;20390;-89
2022/09/01 13:14:04;;;;;;;1.37;1.25;;;;;;;24.14;37.24;100333.31;5516394;32;30953;-89
2022/09/01 13:17:11;;;;;;;1.52;1.23;;;;;;;24.48;38.11;100331.50;5519706;32;32637;-89
2022/09/01 13:27:43;;;;;;;2.47;1.62;;;;;;;23.67;38.15;100331.97;5229354;26;20131;-88
2022/09/01 13:30:53;;;;;;;3.15;1.33;;;;;;;23.50;38.19;100331.09;5530777;32;35199;-91
2022/09/01 13:34:16;;;;;;;2.60;0.95;;;;;;;23.34;36.14;100332.72;5530705;32;33836;-89
2022/09/01 13:37:25;;;;;;;1.20;1.05;;;;;;;23.41;37.10;100335.59;5516990;32;33029;-89
2022/09/01 13:40:28;;;;;;;1.62;1.33;;;;;;;23.28;37.68;100334.16;5517425;32;33204;-88
2022/09/01 13:43:32;;;;;;;3.95;1.48;;;;;;;23.25;38.02;100334.50;5530231;32;34222;-88
2022/09/01 13:46:35;;;;;;;1.25;1.10;;;;;;;23.22;38.78;100334.81;5516304;32;34517;-88
2022/09/01 13:49:59;;;;;;;2.45;1.00;;;;;;;23.10;38.31;100330.69;5529843;32;34069;-88
2022/09/01 13:53:22;;;;;;;1.33;1.02;;;;;;;23.30;38.59;100336.72;5530475;32;34229;-88
2022/09/01 13:56:25;;;;;;;1.20;1.10;;;;;;;23.40;38.44;100339.31;5516252;32;33085;-88
2022/09/01 13:59:29;;;;;;;1.95;1.00;;;;;;;23.11;37.57;100329.66;5530693;32;34250;-90
2022/09/01 14:02:32;;;;;;;3.10;1.20;;;;;;;23.26;36.81;100335.31;5542430;26;33031;-90
2022/09/01 14:05:38;;;;;;;1.48;1.15;;;;;;;22.97;36.75;100331.09;5549532;32;33664;-89
2022/09/01 14:08:41;;;;;;;1.10;1.00;;;;;;;22.68;37.98;100340.38;5553897;26;33680;-88
2022/09/01 14:11:44;;;;;;;3.53;1.00;;;;;;;22.76;38.63;100337.72;5517487;32;32573;-88
2022/09/01 14:14:48;;;;;;;1.67;1.10;;;;;;;22.56;38.86;100335.19;5531478;32;33845;-88
2022/09/01 14:18:13;;;;;;;1.15;1.05;;;;;;;22.78;38.81;100330.28;5531320;32;34036;-89
2022/09/01 14:21:16;;;;;;;3.50;1.40;;;;;;;22.94;38.38;100335.00;5597306;26;33475;-87
2022/09/01 14:24:19;;;;;;;1.20;1.10;;;;;;;23.06;39.20;100340.97;5512139;32;34296;-88
2022/09/01 14:27:22;;;;;;;3.05;1.20;;;;;;;22.87;38.06;100336.59;5512732;32;34821;-90
2022/09/01 14:41:30;;;;;;;1.02;0.93;;;;;;;22.96;38.00;100332.97;1814343;26;20111;-87
2022/09/01 14:44:37;;;;;;;4.82;1.80;;;;;;;23.08;37.00;100340.81;5535660;32;33301;-90
2022/09/01 14:55:04;;;;;;;1.62;1.20;;;;;;;22.94;38.45;100342.25;2294205;29;20424;-89
